sensor_id;sensor_type;location;lat;lon;timestamp;P1;durP1;ratioP1;P2;durP2;ratioP2
24161;SDS011;12318;51.262;7.066;2022-07-23T00:00:19;60.15;;;31.88;;
24161;SDS011;12318;51.262;7.066;2022-07-23T00:02:45;61.03;;;32.80;;
24161;SDS011;12318;51.262;7.066;2022-07-23T00:05:11;58.35;;;31.13;;
24161;SDS011;12318;51.262;7.066;2022-07-23T00:07:37;55.22;;;30.80;;
24161;SDS011;12318;51.262;7.066;2022-07-23T00:10:14;46.97;;;28.88;;
24161;SDS011;12318;51.262;7.066;2022-07-23T00:12:40;53.38;;;29.63;;
24161;SDS011;12318;51.262;7.066;2022-07-23T00:15:06;54.47;;;29.00;;
24161;SDS011;12318;51.262;7.066;2022-07-23T00:17:33;42.47;;;24.15;;
24161;SDS011;12318;51.262;7.066;2022-07-23T00:20:10;48.63;;;25.70;;
24161;SDS011;12318;51.262;7.066;2022-07-23T00:22:36;42.20;;;24.15;;
24161;SDS011;12318;51.262;7.066;2022-07-23T00:25:10;35.47;;;20.75;;
24161;SDS011;12318;51.262;7.066;2022-07-23T00:27:35;37.33;;;21.25;;
24161;SDS011;12318;51.262;7.066;2022-07-23T00:30:04;32.47;;;19.17;;
24161;SDS011;12318;51.262;7.066;2022-07-23T00:32:52;35.55;;;18.98;;
24161;SDS011;12318;51.262;7.066;2022-07-23T00:35:19;32.13;;;19.33;;
24161;SDS011;12318;51.262;7.066;2022-07-23T00:37:46;35.20;;;20.75;;
24161;SDS011;12318;51.262;7.066;2022-07-23T00:40:23;38.75;;;22.65;;
24161;SDS011;12318;51.262;7.066;2022-07-23T00:42:49;37.58;;;20.75;;
24161;SDS011;12318;51.262;7.066;2022-07-23T00:45:15;42.75;;;21.95;;
24161;SDS011;12318;51.262;7.066;2022-07-23T00:47:41;44.05;;;21.75;;
24161;SDS011;12318;51.262;7.066;2022-07-23T00:50:07;30.65;;;18.92;;
24161;SDS011;12318;51.262;7.066;2022-07-23T00:52:34;30.73;;;17.35;;
24161;SDS011;12318;51.262;7.066;2022-07-23T00:55:01;29.75;;;16.95;;
24161;SDS011;12318;51.262;7.066;2022-07-23T00:57:28;25.70;;;15.47;;
24161;SDS011;12318;51.262;7.066;2022-07-23T01:02:39;23.20;;;14.95;;
24161;SDS011;12318;51.262;7.066;2022-07-23T01:05:06;26.83;;;16.20;;
24161;SDS011;12318;51.262;7.066;2022-07-23T01:07:32;26.95;;;15.35;;
24161;SDS011;12318;51.262;7.066;2022-07-23T01:09:59;26.52;;;16.55;;
24161;SDS011;12318;51.262;7.066;2022-07-23T01:12:25;32.55;;;19.38;;
24161;SDS011;12318;51.262;7.066;2022-07-23T01:14:58;32.60;;;20.05;;
24161;SDS011;12318;51.262;7.066;2022-07-23T01:17:24;44.63;;;21.60;;
24161;SDS011;12318;51.262;7.066;2022-07-23T01:19:51;30.52;;;19.92;;
24161;SDS011;12318;51.262;7.066;2022-07-23T01:22:17;39.15;;;18.70;;
24161;SDS011;12318;51.262;7.066;2022-07-23T01:24:45;38.50;;;20.45;;
24161;SDS011;12318;51.262;7.066;2022-07-23T01:27:11;33.55;;;19.63;;
24161;SDS011;12318;51.262;7.066;2022-07-23T01:29:43;34.60;;;20.58;;
24161;SDS011;12318;51.262;7.066;2022-07-23T01:32:09;30.15;;;18.92;;
24161;SDS011;12318;51.262;7.066;2022-07-23T01:34:35;37.90;;;20.50;;
24161;SDS011;12318;51.262;7.066;2022-07-23T01:37:00;38.45;;;21.88;;
24161;SDS011;12318;51.262;7.066;2022-07-23T01:39:29;39.97;;;23.05;;
24161;SDS011;12318;51.262;7.066;2022-07-23T01:41:55;39.15;;;23.23;;
24161;SDS011;12318;51.262;7.066;2022-07-23T01:44:21;35.65;;;21.55;;
24161;SDS011;12318;51.262;7.066;2022-07-23T01:46:46;35.60;;;20.17;;
24161;SDS011;12318;51.262;7.066;2022-07-23T01:49:29;37.70;;;20.17;;
24161;SDS011;12318;51.262;7.066;2022-07-23T01:51:54;30.42;;;19.33;;
24161;SDS011;12318;51.262;7.066;2022-07-23T01:54:30;30.85;;;18.67;;
24161;SDS011;12318;51.262;7.066;2022-07-23T01:59:26;28.45;;;15.98;;
24161;SDS011;12318;51.262;7.066;2022-07-23T02:01:52;27.48;;;15.20;;
24161;SDS011;12318;51.262;7.066;2022-07-23T02:04:18;28.88;;;15.02;;
24161;SDS011;12318;51.262;7.066;2022-07-23T02:06:48;25.75;;;15.98;;
24161;SDS011;12318;51.262;7.066;2022-07-23T02:09:15;26.10;;;15.70;;
24161;SDS011;12318;51.262;7.066;2022-07-23T02:11:41;27.23;;;15.73;;
24161;SDS011;12318;51.262;7.066;2022-07-23T02:14:07;27.10;;;16.63;;
24161;SDS011;12318;51.262;7.066;2022-07-23T02:16:32;27.38;;;16.80;;
24161;SDS011;12318;51.262;7.066;2022-07-23T02:19:03;30.05;;;17.73;;
24161;SDS011;12318;51.262;7.066;2022-07-23T02:21:29;33.13;;;19.30;;
24161;SDS011;12318;51.262;7.066;2022-07-23T02:23:54;32.92;;;19.38;;
24161;SDS011;12318;51.262;7.066;2022-07-23T02:26:20;36.50;;;21.23;;
24161;SDS011;12318;51.262;7.066;2022-07-23T02:28:46;34.60;;;20.85;;
24161;SDS011;12318;51.262;7.066;2022-07-23T02:31:12;38.33;;;20.33;;
24161;SDS011;12318;51.262;7.066;2022-07-23T02:33:37;42.78;;;23.70;;
24161;SDS011;12318;51.262;7.066;2022-07-23T02:36:03;28.40;;;18.50;;
24161;SDS011;12318;51.262;7.066;2022-07-23T02:38:29;34.15;;;20.52;;
24161;SDS011;12318;51.262;7.066;2022-07-23T02:40:55;34.70;;;21.05;;
24161;SDS011;12318;51.262;7.066;2022-07-23T02:43:21;41.13;;;23.77;;
24161;SDS011;12318;51.262;7.066;2022-07-23T02:45:46;37.53;;;21.77;;
24161;SDS011;12318;51.262;7.066;2022-07-23T02:48:12;34.75;;;21.00;;
24161;SDS011;12318;51.262;7.066;2022-07-23T02:53:25;28.13;;;19.35;;
24161;SDS011;12318;51.262;7.066;2022-07-23T02:55:51;33.55;;;21.30;;
24161;SDS011;12318;51.262;7.066;2022-07-23T02:58:16;37.28;;;18.38;;
24161;SDS011;12318;51.262;7.066;2022-07-23T03:00:43;33.28;;;19.13;;
24161;SDS011;12318;51.262;7.066;2022-07-23T03:03:09;44.83;;;23.02;;
24161;SDS011;12318;51.262;7.066;2022-07-23T03:05:35;23.15;;;15.68;;
24161;SDS011;12318;51.262;7.066;2022-07-23T03:08:01;34.88;;;19.60;;
24161;SDS011;12318;51.262;7.066;2022-07-23T03:10:27;29.20;;;17.30;;
24161;SDS011;12318;51.262;7.066;2022-07-23T03:12:53;36.67;;;20.65;;
24161;SDS011;12318;51.262;7.066;2022-07-23T03:15:19;36.80;;;21.70;;
24161;SDS011;12318;51.262;7.066;2022-07-23T03:17:44;32.85;;;20.30;;
24161;SDS011;12318;51.262;7.066;2022-07-23T03:20:16;21.00;;;15.10;;
24161;SDS011;12318;51.262;7.066;2022-07-23T03:22:41;26.92;;;16.33;;
24161;SDS011;12318;51.262;7.066;2022-07-23T03:25:07;25.05;;;16.60;;
24161;SDS011;12318;51.262;7.066;2022-07-23T03:27:33;26.33;;;17.05;;
24161;SDS011;12318;51.262;7.066;2022-07-23T03:30:09;29.85;;;18.25;;
24161;SDS011;12318;51.262;7.066;2022-07-23T03:32:35;36.22;;;20.08;;
24161;SDS011;12318;51.262;7.066;2022-07-23T03:35:00;29.15;;;18.52;;
24161;SDS011;12318;51.262;7.066;2022-07-23T03:37:27;28.60;;;18.75;;
24161;SDS011;12318;51.262;7.066;2022-07-23T03:40:00;30.73;;;19.88;;
24161;SDS011;12318;51.262;7.066;2022-07-23T03:42:25;28.00;;;17.63;;
24161;SDS011;12318;51.262;7.066;2022-07-23T03:44:52;32.05;;;19.33;;
24161;SDS011;12318;51.262;7.066;2022-07-23T03:47:17;29.95;;;17.30;;
24161;SDS011;12318;51.262;7.066;2022-07-23T03:52:33;37.50;;;20.83;;
24161;SDS011;12318;51.262;7.066;2022-07-23T03:54:58;32.10;;;19.85;;
24161;SDS011;12318;51.262;7.066;2022-07-23T03:57:24;28.90;;;17.98;;
24161;SDS011;12318;51.262;7.066;2022-07-23T03:59:59;37.13;;;20.92;;
24161;SDS011;12318;51.262;7.066;2022-07-23T04:02:25;29.92;;;19.65;;
24161;SDS011;12318;51.262;7.066;2022-07-23T04:04:51;29.15;;;18.58;;
24161;SDS011;12318;51.262;7.066;2022-07-23T04:07:17;25.27;;;17.65;;
24161;SDS011;12318;51.262;7.066;2022-07-23T04:09:49;29.02;;;17.58;;
24161;SDS011;12318;51.262;7.066;2022-07-23T04:12:15;25.00;;;16.55;;
24161;SDS011;12318;51.262;7.066;2022-07-23T04:14:41;25.40;;;16.58;;
24161;SDS011;12318;51.262;7.066;2022-07-23T04:17:06;28.42;;;18.63;;
24161;SDS011;12318;51.262;7.066;2022-07-23T04:19:32;32.75;;;19.52;;
24161;SDS011;12318;51.262;7.066;2022-07-23T04:21:58;25.80;;;16.10;;
24161;SDS011;12318;51.262;7.066;2022-07-23T04:24:24;36.95;;;22.27;;
24161;SDS011;12318;51.262;7.066;2022-07-23T04:26:49;37.78;;;21.50;;
24161;SDS011;12318;51.262;7.066;2022-07-23T04:32:09;19.67;;;14.40;;
24161;SDS011;12318;51.262;7.066;2022-07-23T04:34:35;29.45;;;18.23;;
24161;SDS011;12318;51.262;7.066;2022-07-23T04:37:01;21.23;;;14.55;;
24161;SDS011;12318;51.262;7.066;2022-07-23T04:39:41;22.05;;;15.40;;
24161;SDS011;12318;51.262;7.066;2022-07-23T04:42:07;20.65;;;14.10;;
24161;SDS011;12318;51.262;7.066;2022-07-23T04:44:32;26.30;;;17.60;;
24161;SDS011;12318;51.262;7.066;2022-07-23T04:46:58;27.15;;;17.60;;
24161;SDS011;12318;51.262;7.066;2022-07-23T04:49:24;23.98;;;16.75;;
24161;SDS011;12318;51.262;7.066;2022-07-23T04:51:49;27.65;;;17.85;;
24161;SDS011;12318;51.262;7.066;2022-07-23T04:54:15;26.80;;;18.85;;
24161;SDS011;12318;51.262;7.066;2022-07-23T04:56:42;29.50;;;18.90;;
24161;SDS011;12318;51.262;7.066;2022-07-23T04:59:08;26.45;;;18.42;;
24161;SDS011;12318;51.262;7.066;2022-07-23T05:01:34;27.52;;;16.08;;
24161;SDS011;12318;51.262;7.066;2022-07-23T05:03:59;34.72;;;20.60;;
24161;SDS011;12318;51.262;7.066;2022-07-23T05:06:26;246.30;;;22.65;;
24161;SDS011;12318;51.262;7.066;2022-07-23T05:09:06;169.88;;;22.52;;
24161;SDS011;12318;51.262;7.066;2022-07-23T05:11:32;116.20;;;20.35;;
24161;SDS011;12318;51.262;7.066;2022-07-23T05:13:57;252.52;;;23.05;;
24161;SDS011;12318;51.262;7.066;2022-07-23T05:16:23;131.25;;;21.92;;
24161;SDS011;12318;51.262;7.066;2022-07-23T05:18:49;221.05;;;21.23;;
24161;SDS011;12318;51.262;7.066;2022-07-23T05:21:14;165.13;;;16.67;;
24161;SDS011;12318;51.262;7.066;2022-07-23T05:23:40;114.90;;;17.25;;
24161;SDS011;12318;51.262;7.066;2022-07-23T05:26:06;168.82;;;17.65;;
24161;SDS011;12318;51.262;7.066;2022-07-23T05:28:34;126.18;;;15.40;;
24161;SDS011;12318;51.262;7.066;2022-07-23T05:30:59;71.95;;;20.70;;
24161;SDS011;12318;51.262;7.066;2022-07-23T05:33:25;73.20;;;19.40;;
24161;SDS011;12318;51.262;7.066;2022-07-23T05:35:51;218.25;;;22.05;;
24161;SDS011;12318;51.262;7.066;2022-07-23T05:38:16;243.63;;;20.83;;
24161;SDS011;12318;51.262;7.066;2022-07-23T05:40:42;64.57;;;15.93;;
24161;SDS011;12318;51.262;7.066;2022-07-23T05:43:08;335.77;;;20.17;;
24161;SDS011;12318;51.262;7.066;2022-07-23T05:45:33;97.25;;;18.30;;
24161;SDS011;12318;51.262;7.066;2022-07-23T05:47:59;393.35;;;20.90;;
24161;SDS011;12318;51.262;7.066;2022-07-23T05:50:26;465.63;;;24.85;;
24161;SDS011;12318;51.262;7.066;2022-07-23T05:52:52;166.98;;;19.95;;
24161;SDS011;12318;51.262;7.066;2022-07-23T05:55:17;245.70;;;19.25;;
24161;SDS011;12318;51.262;7.066;2022-07-23T05:57:43;150.38;;;17.05;;
24161;SDS011;12318;51.262;7.066;2022-07-23T06:02:53;215.30;;;17.38;;
24161;SDS011;12318;51.262;7.066;2022-07-23T06:05:19;222.43;;;19.02;;
24161;SDS011;12318;51.262;7.066;2022-07-23T06:07:45;102.60;;;17.70;;
24161;SDS011;12318;51.262;7.066;2022-07-23T06:10:12;108.97;;;14.15;;
24161;SDS011;12318;51.262;7.066;2022-07-23T06:12:37;63.13;;;16.65;;
24161;SDS011;12318;51.262;7.066;2022-07-23T06:15:03;131.98;;;21.98;;
24161;SDS011;12318;51.262;7.066;2022-07-23T06:17:29;50.30;;;13.05;;
24161;SDS011;12318;51.262;7.066;2022-07-23T06:22:41;44.08;;;12.90;;
24161;SDS011;12318;51.262;7.066;2022-07-23T06:25:07;47.63;;;18.25;;
24161;SDS011;12318;51.262;7.066;2022-07-23T06:27:33;66.70;;;19.13;;
24161;SDS011;12318;51.262;7.066;2022-07-23T06:30:13;60.60;;;16.08;;
24161;SDS011;12318;51.262;7.066;2022-07-23T06:32:41;43.35;;;19.10;;
24161;SDS011;12318;51.262;7.066;2022-07-23T06:35:07;20.55;;;13.05;;
24161;SDS011;12318;51.262;7.066;2022-07-23T06:37:32;102.40;;;16.58;;
24161;SDS011;12318;51.262;7.066;2022-07-23T06:42:45;18.40;;;13.23;;
24161;SDS011;12318;51.262;7.066;2022-07-23T06:45:10;26.70;;;17.88;;
24161;SDS011;12318;51.262;7.066;2022-07-23T06:47:36;22.05;;;17.50;;
24161;SDS011;12318;51.262;7.066;2022-07-23T06:50:04;21.80;;;14.27;;
24161;SDS011;12318;51.262;7.066;2022-07-23T06:52:30;25.70;;;17.38;;
24161;SDS011;12318;51.262;7.066;2022-07-23T06:54:56;25.17;;;18.85;;
24161;SDS011;12318;51.262;7.066;2022-07-23T06:57:22;26.05;;;17.90;;
24161;SDS011;12318;51.262;7.066;2022-07-23T06:59:49;23.45;;;17.63;;
24161;SDS011;12318;51.262;7.066;2022-07-23T07:02:15;23.45;;;18.05;;
24161;SDS011;12318;51.262;7.066;2022-07-23T07:04:40;23.35;;;16.15;;
24161;SDS011;12318;51.262;7.066;2022-07-23T07:07:06;25.50;;;17.60;;
24161;SDS011;12318;51.262;7.066;2022-07-23T07:09:32;24.30;;;16.88;;
24161;SDS011;12318;51.262;7.066;2022-07-23T07:11:57;25.95;;;18.63;;
24161;SDS011;12318;51.262;7.066;2022-07-23T07:14:23;25.42;;;18.63;;
24161;SDS011;12318;51.262;7.066;2022-07-23T07:16:48;26.65;;;18.92;;
24161;SDS011;12318;51.262;7.066;2022-07-23T07:19:20;25.20;;;17.17;;
24161;SDS011;12318;51.262;7.066;2022-07-23T07:21:46;28.58;;;17.63;;
24161;SDS011;12318;51.262;7.066;2022-07-23T07:24:11;23.50;;;16.08;;
24161;SDS011;12318;51.262;7.066;2022-07-23T07:26:37;24.98;;;16.33;;
24161;SDS011;12318;51.262;7.066;2022-07-23T07:29:04;20.33;;;15.30;;
24161;SDS011;12318;51.262;7.066;2022-07-23T07:31:30;21.75;;;15.18;;
24161;SDS011;12318;51.262;7.066;2022-07-23T07:33:56;26.00;;;17.10;;
24161;SDS011;12318;51.262;7.066;2022-07-23T07:36:22;29.20;;;18.30;;
24161;SDS011;12318;51.262;7.066;2022-07-23T07:39:07;23.38;;;17.00;;
24161;SDS011;12318;51.262;7.066;2022-07-23T07:41:35;26.60;;;18.10;;
24161;SDS011;12318;51.262;7.066;2022-07-23T07:44:01;30.60;;;19.33;;
24161;SDS011;12318;51.262;7.066;2022-07-23T07:46:26;26.17;;;18.38;;
24161;SDS011;12318;51.262;7.066;2022-07-23T07:48:56;34.55;;;19.17;;
24161;SDS011;12318;51.262;7.066;2022-07-23T07:51:21;32.30;;;19.85;;
24161;SDS011;12318;51.262;7.066;2022-07-23T07:53:47;25.42;;;17.08;;
24161;SDS011;12318;51.262;7.066;2022-07-23T07:56:13;26.48;;;18.40;;
24161;SDS011;12318;51.262;7.066;2022-07-23T07:58:48;27.75;;;18.42;;
24161;SDS011;12318;51.262;7.066;2022-07-23T08:01:13;29.17;;;18.80;;
24161;SDS011;12318;51.262;7.066;2022-07-23T08:03:39;27.52;;;17.33;;
24161;SDS011;12318;51.262;7.066;2022-07-23T08:06:05;26.77;;;17.33;;
24161;SDS011;12318;51.262;7.066;2022-07-23T08:08:36;27.13;;;16.70;;
24161;SDS011;12318;51.262;7.066;2022-07-23T08:13:27;19.83;;;12.82;;
24161;SDS011;12318;51.262;7.066;2022-07-23T08:15:53;21.75;;;13.93;;
24161;SDS011;12318;51.262;7.066;2022-07-23T08:18:19;23.50;;;14.60;;
24161;SDS011;12318;51.262;7.066;2022-07-23T08:20:45;21.58;;;13.63;;
24161;SDS011;12318;51.262;7.066;2022-07-23T08:23:10;24.30;;;14.75;;
24161;SDS011;12318;51.262;7.066;2022-07-23T08:25:41;18.45;;;13.48;;
24161;SDS011;12318;51.262;7.066;2022-07-23T08:28:08;18.60;;;14.17;;
24161;SDS011;12318;51.262;7.066;2022-07-23T08:30:36;20.83;;;12.95;;
24161;SDS011;12318;51.262;7.066;2022-07-23T08:33:04;15.85;;;12.73;;
24161;SDS011;12318;51.262;7.066;2022-07-23T08:35:37;18.05;;;12.70;;
24161;SDS011;12318;51.262;7.066;2022-07-23T08:38:04;21.05;;;12.95;;
24161;SDS011;12318;51.262;7.066;2022-07-23T08:40:33;18.05;;;11.90;;
24161;SDS011;12318;51.262;7.066;2022-07-23T08:43:02;17.92;;;12.25;;
24161;SDS011;12318;51.262;7.066;2022-07-23T08:45:30;16.85;;;12.05;;
24161;SDS011;12318;51.262;7.066;2022-07-23T08:48:03;16.80;;;13.00;;
24161;SDS011;12318;51.262;7.066;2022-07-23T08:50:32;18.75;;;13.68;;
24161;SDS011;12318;51.262;7.066;2022-07-23T08:52:59;15.45;;;12.10;;
24161;SDS011;12318;51.262;7.066;2022-07-23T08:55:26;16.27;;;11.05;;
24161;SDS011;12318;51.262;7.066;2022-07-23T08:57:52;12.82;;;10.02;;
24161;SDS011;12318;51.262;7.066;2022-07-23T09:00:20;14.80;;;10.93;;
24161;SDS011;12318;51.262;7.066;2022-07-23T09:02:47;14.73;;;10.48;;
24161;SDS011;12318;51.262;7.066;2022-07-23T09:05:14;11.82;;;10.40;;
24161;SDS011;12318;51.262;7.066;2022-07-23T09:10:57;13.70;;;11.18;;
24161;SDS011;12318;51.262;7.066;2022-07-23T09:13:25;17.58;;;11.50;;
24161;SDS011;12318;51.262;7.066;2022-07-23T09:15:56;13.90;;;9.65;;
24161;SDS011;12318;51.262;7.066;2022-07-23T09:18:34;12.40;;;10.48;;
24161;SDS011;12318;51.262;7.066;2022-07-23T09:21:11;15.60;;;11.90;;
24161;SDS011;12318;51.262;7.066;2022-07-23T09:23:46;13.38;;;9.68;;
24161;SDS011;12318;51.262;7.066;2022-07-23T09:26:22;15.20;;;10.75;;
24161;SDS011;12318;51.262;7.066;2022-07-23T09:31:53;13.10;;;9.37;;
24161;SDS011;12318;51.262;7.066;2022-07-23T09:36:53;12.93;;;8.63;;
24161;SDS011;12318;51.262;7.066;2022-07-23T09:39:27;12.60;;;8.93;;
24161;SDS011;12318;51.262;7.066;2022-07-23T09:41:54;14.20;;;10.40;;
24161;SDS011;12318;51.262;7.066;2022-07-23T09:44:20;13.27;;;9.10;;
24161;SDS011;12318;51.262;7.066;2022-07-23T09:46:47;12.40;;;8.80;;
24161;SDS011;12318;51.262;7.066;2022-07-23T09:49:26;11.65;;;7.97;;
24161;SDS011;12318;51.262;7.066;2022-07-23T09:51:54;14.02;;;8.63;;
24161;SDS011;12318;51.262;7.066;2022-07-23T09:56:50;13.70;;;10.20;;
24161;SDS011;12318;51.262;7.066;2022-07-23T09:59:22;15.98;;;12.07;;
24161;SDS011;12318;51.262;7.066;2022-07-23T10:01:56;13.90;;;11.07;;
24161;SDS011;12318;51.262;7.066;2022-07-23T10:04:24;15.57;;;10.85;;
24161;SDS011;12318;51.262;7.066;2022-07-23T10:06:52;16.52;;;10.70;;
24161;SDS011;12318;51.262;7.066;2022-07-23T10:09:26;14.57;;;9.57;;
24161;SDS011;12318;51.262;7.066;2022-07-23T10:11:55;10.93;;;8.00;;
24161;SDS011;12318;51.262;7.066;2022-07-23T10:14:48;10.13;;;7.90;;
24161;SDS011;12318;51.262;7.066;2022-07-23T10:17:14;7.82;;;5.53;;
24161;SDS011;12318;51.262;7.066;2022-07-23T10:19:41;7.07;;;4.90;;
24161;SDS011;12318;51.262;7.066;2022-07-23T10:22:15;8.32;;;5.25;;
24161;SDS011;12318;51.262;7.066;2022-07-23T10:24:47;8.27;;;6.75;;
24161;SDS011;12318;51.262;7.066;2022-07-23T10:27:47;8.57;;;6.82;;
24161;SDS011;12318;51.262;7.066;2022-07-23T10:36:30;10.98;;;6.53;;
24161;SDS011;12318;51.262;7.066;2022-07-23T10:39:05;6.38;;;4.80;;
24161;SDS011;12318;51.262;7.066;2022-07-23T10:41:40;8.70;;;6.63;;
24161;SDS011;12318;51.262;7.066;2022-07-23T10:44:07;12.68;;;7.93;;
24161;SDS011;12318;51.262;7.066;2022-07-23T10:49:47;10.32;;;7.05;;
24161;SDS011;12318;51.262;7.066;2022-07-23T10:57:26;10.77;;;5.60;;
24161;SDS011;12318;51.262;7.066;2022-07-23T11:02:30;5.47;;;3.90;;
24161;SDS011;12318;51.262;7.066;2022-07-23T11:05:16;6.43;;;3.95;;
24161;SDS011;12318;51.262;7.066;2022-07-23T11:10:52;7.95;;;3.80;;
24161;SDS011;12318;51.262;7.066;2022-07-23T11:23:59;6.38;;;4.50;;
24161;SDS011;12318;51.262;7.066;2022-07-23T11:32:25;3.70;;;2.60;;
24161;SDS011;12318;51.262;7.066;2022-07-23T11:34:54;6.20;;;3.60;;
24161;SDS011;12318;51.262;7.066;2022-07-23T11:37:31;7.50;;;3.90;;
24161;SDS011;12318;51.262;7.066;2022-07-23T11:40:02;6.60;;;3.30;;
24161;SDS011;12318;51.262;7.066;2022-07-23T11:42:31;7.78;;;4.38;;
24161;SDS011;12318;51.262;7.066;2022-07-23T11:44:57;5.63;;;3.85;;
24161;SDS011;12318;51.262;7.066;2022-07-23T11:47:23;10.15;;;3.22;;
24161;SDS011;12318;51.262;7.066;2022-07-23T11:49:56;4.28;;;3.10;;
24161;SDS011;12318;51.262;7.066;2022-07-23T11:52:23;8.82;;;2.95;;
24161;SDS011;12318;51.262;7.066;2022-07-23T11:54:53;4.15;;;3.00;;
24161;SDS011;12318;51.262;7.066;2022-07-23T11:57:25;7.50;;;2.70;;
24161;SDS011;12318;51.262;7.066;2022-07-23T12:00:15;7.47;;;3.20;;
24161;SDS011;12318;51.262;7.066;2022-07-23T12:02:43;8.45;;;4.65;;
24161;SDS011;12318;51.262;7.066;2022-07-23T12:05:15;6.80;;;3.50;;
24161;SDS011;12318;51.262;7.066;2022-07-23T12:07:42;5.60;;;2.67;;
24161;SDS011;12318;51.262;7.066;2022-07-23T12:10:27;7.60;;;2.83;;
24161;SDS011;12318;51.262;7.066;2022-07-23T12:13:08;5.97;;;2.88;;
24161;SDS011;12318;51.262;7.066;2022-07-23T12:15:39;7.65;;;2.50;;
24161;SDS011;12318;51.262;7.066;2022-07-23T12:18:11;5.65;;;2.88;;
24161;SDS011;12318;51.262;7.066;2022-07-23T12:20:48;4.45;;;2.20;;
24161;SDS011;12318;51.262;7.066;2022-07-23T12:23:17;5.70;;;2.25;;
24161;SDS011;12318;51.262;7.066;2022-07-23T12:25:44;7.78;;;2.53;;
24161;SDS011;12318;51.262;7.066;2022-07-23T12:28:12;7.72;;;2.38;;
24161;SDS011;12318;51.262;7.066;2022-07-23T12:31:06;6.75;;;3.03;;
24161;SDS011;12318;51.262;7.066;2022-07-23T12:33:33;3.65;;;2.50;;
24161;SDS011;12318;51.262;7.066;2022-07-23T12:36:05;7.15;;;3.08;;
24161;SDS011;12318;51.262;7.066;2022-07-23T12:41:50;4.40;;;2.85;;
24161;SDS011;12318;51.262;7.066;2022-07-23T12:44:16;5.35;;;2.85;;
24161;SDS011;12318;51.262;7.066;2022-07-23T12:46:42;6.30;;;2.53;;
24161;SDS011;12318;51.262;7.066;2022-07-23T12:49:34;6.93;;;3.50;;
24161;SDS011;12318;51.262;7.066;2022-07-23T12:52:05;6.43;;;3.00;;
24161;SDS011;12318;51.262;7.066;2022-07-23T12:54:40;6.78;;;3.20;;
24161;SDS011;12318;51.262;7.066;2022-07-23T12:57:44;6.03;;;2.80;;
24161;SDS011;12318;51.262;7.066;2022-07-23T13:00:11;8.55;;;3.10;;
24161;SDS011;12318;51.262;7.066;2022-07-23T13:02:46;7.82;;;3.63;;
24161;SDS011;12318;51.262;7.066;2022-07-23T13:05:12;10.13;;;3.00;;
24161;SDS011;12318;51.262;7.066;2022-07-23T13:07:38;7.53;;;3.72;;
24161;SDS011;12318;51.262;7.066;2022-07-23T13:10:09;7.65;;;2.97;;
24161;SDS011;12318;51.262;7.066;2022-07-23T13:12:37;6.93;;;3.40;;
24161;SDS011;12318;51.262;7.066;2022-07-23T13:15:03;5.65;;;3.17;;
24161;SDS011;12318;51.262;7.066;2022-07-23T13:17:29;9.90;;;3.55;;
24161;SDS011;12318;51.262;7.066;2022-07-23T13:20:01;5.85;;;3.28;;
24161;SDS011;12318;51.262;7.066;2022-07-23T13:22:28;7.18;;;3.30;;
24161;SDS011;12318;51.262;7.066;2022-07-23T13:24:54;8.10;;;3.28;;
24161;SDS011;12318;51.262;7.066;2022-07-23T13:27:19;8.85;;;3.42;;
24161;SDS011;12318;51.262;7.066;2022-07-23T13:29:45;5.97;;;2.97;;
24161;SDS011;12318;51.262;7.066;2022-07-23T13:32:12;7.00;;;2.90;;
24161;SDS011;12318;51.262;7.066;2022-07-23T13:34:38;8.18;;;3.47;;
24161;SDS011;12318;51.262;7.066;2022-07-23T13:37:04;8.05;;;3.90;;
24161;SDS011;12318;51.262;7.066;2022-07-23T13:39:35;6.38;;;3.30;;
24161;SDS011;12318;51.262;7.066;2022-07-23T13:42:01;9.13;;;4.50;;
24161;SDS011;12318;51.262;7.066;2022-07-23T13:44:26;11.52;;;4.20;;
24161;SDS011;12318;51.262;7.066;2022-07-23T13:46:52;5.97;;;3.25;;
24161;SDS011;12318;51.262;7.066;2022-07-23T13:52:17;5.03;;;3.13;;
24161;SDS011;12318;51.262;7.066;2022-07-23T13:54:42;6.85;;;3.25;;
24161;SDS011;12318;51.262;7.066;2022-07-23T13:57:08;8.63;;;2.80;;
24161;SDS011;12318;51.262;7.066;2022-07-23T13:59:41;7.05;;;2.78;;
24161;SDS011;12318;51.262;7.066;2022-07-23T14:02:06;4.90;;;2.55;;
24161;SDS011;12318;51.262;7.066;2022-07-23T14:04:32;6.45;;;2.70;;
24161;SDS011;12318;51.262;7.066;2022-07-23T14:06:58;6.85;;;3.13;;
24161;SDS011;12318;51.262;7.066;2022-07-23T14:09:24;6.90;;;2.83;;
24161;SDS011;12318;51.262;7.066;2022-07-23T14:11:49;7.70;;;2.60;;
24161;SDS011;12318;51.262;7.066;2022-07-23T14:14:16;6.05;;;2.30;;
24161;SDS011;12318;51.262;7.066;2022-07-23T14:16:42;6.68;;;2.55;;
24161;SDS011;12318;51.262;7.066;2022-07-23T14:19:19;5.05;;;2.78;;
24161;SDS011;12318;51.262;7.066;2022-07-23T14:21:45;6.47;;;2.60;;
24161;SDS011;12318;51.262;7.066;2022-07-23T14:24:13;8.05;;;2.50;;
24161;SDS011;12318;51.262;7.066;2022-07-23T14:26:39;8.23;;;2.60;;
24161;SDS011;12318;51.262;7.066;2022-07-23T14:29:09;5.72;;;2.70;;
24161;SDS011;12318;51.262;7.066;2022-07-23T14:31:35;7.30;;;2.23;;
24161;SDS011;12318;51.262;7.066;2022-07-23T14:34:01;4.75;;;2.85;;
24161;SDS011;12318;51.262;7.066;2022-07-23T14:36:28;5.78;;;2.80;;
24161;SDS011;12318;51.262;7.066;2022-07-23T14:38:54;7.75;;;3.00;;
24161;SDS011;12318;51.262;7.066;2022-07-23T14:41:21;6.80;;;3.00;;
24161;SDS011;12318;51.262;7.066;2022-07-23T14:43:49;6.60;;;3.10;;
24161;SDS011;12318;51.262;7.066;2022-07-23T14:46:14;5.63;;;3.40;;
24161;SDS011;12318;51.262;7.066;2022-07-23T14:48:41;6.10;;;3.20;;
24161;SDS011;12318;51.262;7.066;2022-07-23T14:51:07;7.05;;;2.70;;
24161;SDS011;12318;51.262;7.066;2022-07-23T14:53:33;7.32;;;2.88;;
24161;SDS011;12318;51.262;7.066;2022-07-23T14:55:59;6.47;;;2.70;;
24161;SDS011;12318;51.262;7.066;2022-07-23T14:58:25;8.30;;;3.13;;
24161;SDS011;12318;51.262;7.066;2022-07-23T15:01:00;5.60;;;2.63;;
24161;SDS011;12318;51.262;7.066;2022-07-23T15:03:25;8.10;;;3.13;;
24161;SDS011;12318;51.262;7.066;2022-07-23T15:05:51;6.82;;;2.83;;
24161;SDS011;12318;51.262;7.066;2022-07-23T15:08:17;5.75;;;3.15;;
24161;SDS011;12318;51.262;7.066;2022-07-23T15:10:48;6.78;;;2.97;;
24161;SDS011;12318;51.262;7.066;2022-07-23T15:15:39;10.95;;;2.80;;
24161;SDS011;12318;51.262;7.066;2022-07-23T15:18:05;7.28;;;3.60;;
24161;SDS011;12318;51.262;7.066;2022-07-23T15:20:38;7.20;;;2.60;;
24161;SDS011;12318;51.262;7.066;2022-07-23T15:23:05;5.28;;;2.60;;
24161;SDS011;12318;51.262;7.066;2022-07-23T15:25:31;3.47;;;2.65;;
24161;SDS011;12318;51.262;7.066;2022-07-23T15:28:02;5.25;;;2.22;;
24161;SDS011;12318;51.262;7.066;2022-07-23T15:30:28;4.82;;;2.45;;
24161;SDS011;12318;51.262;7.066;2022-07-23T15:32:53;3.80;;;2.10;;
24161;SDS011;12318;51.262;7.066;2022-07-23T15:35:19;5.20;;;2.20;;
24161;SDS011;12318;51.262;7.066;2022-07-23T15:37:45;4.55;;;2.63;;
24161;SDS011;12318;51.262;7.066;2022-07-23T15:40:19;5.97;;;2.30;;
24161;SDS011;12318;51.262;7.066;2022-07-23T15:42:44;6.07;;;2.30;;
24161;SDS011;12318;51.262;7.066;2022-07-23T15:45:10;4.35;;;2.50;;
24161;SDS011;12318;51.262;7.066;2022-07-23T15:47:36;2.72;;;2.20;;
24161;SDS011;12318;51.262;7.066;2022-07-23T15:50:06;11.65;;;2.30;;
24161;SDS011;12318;51.262;7.066;2022-07-23T15:52:32;4.28;;;2.60;;
24161;SDS011;12318;51.262;7.066;2022-07-23T15:54:58;5.25;;;2.40;;